Allerte
Precipitazioni in corso 

Pozzuoli

Allerta Gelo (░C)  

Nessuna

Allerta Vento (km/h)  

Nessuna

Scarsa VisibilitÓ (m) 

Nessuna

Allerta Caldo (░C)  

Nessuna

Allerta Afa (░C-UR)  

Nessuna

Dati e Grafici Climatici 3-7 gg
L'OMTeA propone un elaborazione dei più importanti parametri meteorologici rilevati dalle stazioni che hanno aderito al progetto di monitoraggio. In questa sezione è possibile consultare i dati provenienti dalle centraline, interpretati attraverso output testuale e grafico.
Se vuoi aderire alla rete OMTeA vai alla pagina Info e leggi requisiti e vantaggi.

Stazione di Pomezia - www.pomeziameteo.it

Valori rilevati il 20/06/2018 alle ore 23:01

Temperatura atmosferica: 20.2 °C
Pressione atmosferica: 1017.5 mbar
Umidità relativa: 91 %
Pioggia (cumulata giornaliera): 6.6 mm
Intensità e direzione vento: 8.0 Km/h da ESE

Altitudine: 108 metri s.l.m.
Latitudine: 41.41° N
Longitudine: 12.30° E



Entra nella rete OMTeA!. Potrai liberamente usare sul tuo sito questi grafici; info alla pagina Istruzioni.

Ultime 50 rilevazioni
Orario Temp
°C
Rugiada
°C
Prec.
mm
Press.
mbar
Umidità
%
Int. vento
km/h
Dir.
vento
23:01 - 20/06 20.2 18.7 0 1017.50 91 8.0 ESE
22:45 - 20/06 20.3 18.8 0 1017.50 91 6.4 SE
22:31 - 20/06 20.1 18.4 0 1017.60 90 3.2 S
22:15 - 20/06 20.2 18.5 0 1017.60 90 12.9 SE
22:01 - 20/06 20.2 18.5 0.2 1017.80 90 12.9 SSE
21:45 - 20/06 20.5 18.6 0 1018.00 89 9.7 SE
21:31 - 20/06 20.4 18.3 0 1017.80 88 14.5 SSE
21:15 - 20/06 20.4 18.2 0 1017.70 87 6.4 SSE
21:01 - 20/06 20.7 18.1 6.4 1017.70 85 11.3 S
20:45 - 20/06 22.2 17.6 0 1017.50 75 16.1 SE
20:31 - 20/06 24.9 17.9 0 1016.90 65 17.7 ESE
20:15 - 20/06 26.2 17.0 0 1016.50 57 0 --
20:01 - 20/06 26.4 16.9 0 1016.30 56 0 --
19:45 - 20/06 26.8 16.7 0 1016.10 54 0 --
19:30 - 20/06 26.9 16.8 0 1015.90 54 0 --
19:16 - 20/06 27.0 16.6 0 1015.80 53 3.2 OSO
19:01 - 20/06 27.2 16.5 0 1015.60 52 0 --
18:45 - 20/06 27.3 15.9 0 1015.50 50 0 --
18:30 - 20/06 27.5 15.8 0 1015.40 49 0 --
18:16 - 20/06 27.8 15.8 0 1015.50 48 0 --
18:01 - 20/06 28.1 15.4 0 1015.60 46 0 --
17:45 - 20/06 28.4 15.3 0 1015.60 45 0 --
17:30 - 20/06 28.5 15.7 0 1015.40 46 0 --
17:15 - 20/06 28.6 16.5 0 1015.50 48 0 --
17:00 - 20/06 28.6 16.2 0 1015.40 47 1.6 ONO
16:45 - 20/06 28.9 16.1 0 1015.40 46 0 --
16:30 - 20/06 29.3 16.5 0 1015.40 46 6.4 NO
16:16 - 20/06 29.2 16.4 0 1015.50 46 1.6 NNE
16:01 - 20/06 29.1 16.3 0 1015.60 46 0 --
15:45 - 20/06 29.2 16.7 0 1015.80 47 6.4 NNE
15:31 - 20/06 29.2 16.7 0 1015.90 47 1.6 E
15:15 - 20/06 28.9 16.4 0 1016.00 47 0 --
15:01 - 20/06 29.1 16.3 0 1016.10 46 0 --
14:45 - 20/06 29.2 16.4 0 1016.10 46 6.4 SSE
14:31 - 20/06 29.5 16.3 0 1016.10 45 1.6 NNO
14:15 - 20/06 29.5 16.6 0 1016.20 46 3.2 SSE
14:01 - 20/06 29.4 16.2 0 1016.40 45 12.9 O
13:45 - 20/06 29.2 16.0 0 1016.50 45 1.6 NE
13:30 - 20/06 29.2 16.0 0 1016.60 45 0 --
13:15 - 20/06 29.2 16.4 0 1016.80 46 1.6 O
13:01 - 20/06 29.3 16.8 0 1016.90 47 6.4 ESE
12:45 - 20/06 29.7 17.2 0 1017.00 47 1.6 SO
12:31 - 20/06 29.7 17.2 0 1017.00 47 1.6 E
12:15 - 20/06 29.4 16.9 0 1017.00 47 4.8 SO
12:01 - 20/06 29.5 17.0 0 1017.10 47 0 --
11:46 - 20/06 29.4 17.2 0 1017.00 48 0 --
11:31 - 20/06 28.8 17.0 0 1017.10 49 1.6 N
11:16 - 20/06 28.7 17.2 0 1017.10 50 4.8 OSO
11:01 - 20/06 28.3 17.5 0 1017.10 52 0 --
10:45 - 20/06 28.6 17.5 0 1016.90 51 1.6 SSO


   In caso di mancato funzionamento di qualche risorsa, vi preghiamo di segnalarcelo alla pagina Contatti.
© 2018 Osservatorio Meteo OMTeA
Sito di informazione su Meteo, Tempo in atto e Clima in Italia